Time;durP1;ratioP1;P1;durP2;ratioP2;P2;SDS_P1;SDS_P2;PMS_P1;PMS_P2;Temp;Humidity;BMP_temperature;BMP_pressure;BME280_temperature;BME280_humidity;BME280_pressure;Samples;Min_cycle;Max_cycle;Signal;HPM_P1;HPM_P2
2022/01/16 00:04:08;;;;;;;90.80;33.88;;;;;;;6.47;73.27;102422.47;4954406;28;20133;-57
2022/01/16 00:06:38;;;;;;;89.00;33.03;;;;;;;6.49;72.72;102413.09;4949351;28;20068;-59
2022/01/16 00:09:05;;;;;;;93.03;33.50;;;;;;;6.45;73.12;102408.56;4957437;28;20398;-58
2022/01/16 00:11:31;;;;;;;94.93;34.20;;;;;;;6.47;72.94;102416.38;4949547;28;20153;-58
2022/01/16 00:13:56;;;;;;;101.63;35.20;;;;;;;6.46;72.83;102420.69;4955388;28;20365;-59
2022/01/16 00:16:22;;;;;;;96.70;34.28;;;;;;;6.48;73.06;102419.06;4958885;28;20414;-57
2022/01/16 00:18:52;;;;;;;103.15;34.67;;;;;;;6.49;72.87;102414.78;4960051;28;20046;-59
2022/01/16 00:21:29;;;;;;;93.88;33.78;;;;;;;6.46;72.70;102410.31;4953784;28;20157;-57
2022/01/16 00:23:54;;;;;;;103.88;34.92;;;;;;;6.42;72.92;102394.53;4950558;28;20337;-59
2022/01/16 00:26:21;;;;;;;97.25;34.00;;;;;;;6.40;73.09;102394.44;4954624;28;20039;-59
2022/01/16 00:28:47;;;;;;;88.25;33.80;;;;;;;6.51;72.92;102400.22;4958846;28;20050;-59
2022/01/16 00:31:13;;;;;;;96.95;34.72;;;;;;;6.46;72.98;102396.50;4948014;28;20493;-58
2022/01/16 00:33:39;;;;;;;99.47;35.10;;;;;;;6.47;73.02;102400.84;4948402;28;20054;-58
2022/01/16 00:36:06;;;;;;;103.28;35.95;;;;;;;6.44;73.11;102401.59;4956122;28;20038;-58
2022/01/16 00:38:31;;;;;;;97.80;34.85;;;;;;;6.44;73.32;102404.19;4958678;28;20038;-59
2022/01/16 00:40:57;;;;;;;103.00;35.58;;;;;;;6.41;73.63;102397.91;4960207;28;20474;-58
2022/01/16 00:43:22;;;;;;;101.47;35.70;;;;;;;6.42;73.51;102400.59;4957426;28;20058;-59
2022/01/16 00:45:47;;;;;;;109.97;35.17;;;;;;;6.47;73.72;102406.91;4949774;28;20220;-58
2022/01/16 00:48:14;;;;;;;103.65;33.50;;;;;;;6.53;73.63;102413.28;4952051;28;20085;-58
2022/01/16 00:50:39;;;;;;;106.63;35.20;;;;;;;6.49;73.88;102413.09;4959962;28;20124;-58
2022/01/16 00:53:04;;;;;;;108.82;35.13;;;;;;;6.53;73.87;102389.94;4954299;28;20046;-58
2022/01/16 00:55:32;;;;;;;111.00;34.47;;;;;;;6.56;73.97;102379.72;4946884;28;20288;-61
2022/01/16 00:57:57;;;;;;;115.90;34.60;;;;;;;6.55;74.20;102383.13;4964547;28;20558;-57
2022/01/16 01:00:23;;;;;;;123.38;34.83;;;;;;;6.59;74.45;102378.19;4956274;28;20046;-58
2022/01/16 01:02:48;;;;;;;119.50;34.53;;;;;;;6.66;74.13;102351.78;4957892;28;20591;-58
2022/01/16 01:05:13;;;;;;;118.38;34.10;;;;;;;6.63;74.57;102346.47;4959669;28;20231;-57
2022/01/16 01:07:39;;;;;;;115.30;33.42;;;;;;;6.71;74.28;102359.84;4951866;28;20038;-58
2022/01/16 01:10:06;;;;;;;119.57;34.05;;;;;;;6.74;74.34;102370.34;4958032;28;20074;-58
2022/01/16 01:12:51;;;;;;;115.93;33.70;;;;;;;6.74;74.49;102354.78;4956906;28;20077;-58
2022/01/16 01:15:16;;;;;;;116.97;31.90;;;;;;;6.80;74.68;102386.22;4953820;28;20482;-57
2022/01/16 01:17:45;;;;;;;121.55;34.33;;;;;;;6.79;74.82;102371.47;4949914;28;20296;-58
2022/01/16 01:20:14;;;;;;;123.88;34.67;;;;;;;6.79;74.82;102381.84;4959086;28;20074;-58
2022/01/16 01:22:40;;;;;;;120.38;32.92;;;;;;;6.80;74.77;102378.44;4954566;28;20047;-58
2022/01/16 01:25:06;;;;;;;126.38;33.60;;;;;;;6.82;74.77;102374.22;4957754;28;20105;-57
2022/01/16 01:27:33;;;;;;;124.07;33.20;;;;;;;6.85;74.80;102364.91;4951965;28;20605;-59
2022/01/16 01:30:04;;;;;;;119.45;34.58;;;;;;;6.85;74.52;102364.91;4957679;28;20221;-58
2022/01/16 01:32:31;;;;;;;110.28;33.83;;;;;;;6.86;74.45;102386.53;4958483;28;20454;-58
2022/01/16 01:34:56;;;;;;;112.72;31.52;;;;;;;6.89;74.41;102381.53;4955107;28;20441;-58
2022/01/16 01:37:22;;;;;;;113.60;33.88;;;;;;;6.84;74.30;102381.25;4959470;28;20073;-59
2022/01/16 01:39:48;;;;;;;118.72;33.28;;;;;;;6.84;74.43;102363.13;4955902;28;20045;-59
2022/01/16 01:42:14;;;;;;;109.50;32.38;;;;;;;6.87;74.48;102329.59;4957277;28;20540;-59
2022/01/16 01:52:55;;;;;;;110.10;32.45;;;;;;;6.89;74.02;102316.72;4955180;28;20048;-59
2022/01/16 01:55:23;;;;;;;106.82;31.70;;;;;;;6.88;74.34;102339.16;4966424;28;20050;-59
2022/01/16 01:57:49;;;;;;;108.25;32.60;;;;;;;6.87;74.31;102349.44;4944403;28;20532;-59
2022/01/16 02:00:17;;;;;;;109.40;32.42;;;;;;;6.84;74.52;102363.13;4959655;28;20039;-59
2022/01/16 02:05:28;;;;;;;101.18;32.22;;;;;;;6.88;74.47;102384.94;4948824;28;20872;-60
2022/01/16 02:07:53;;;;;;;108.50;33.42;;;;;;;6.88;74.46;102395.28;4956218;28;20082;-59
2022/01/16 02:10:19;;;;;;;98.13;32.33;;;;;;;6.89;74.41;102386.72;4941834;28;20529;-59
2022/01/16 02:12:46;;;;;;;99.38;31.77;;;;;;;6.89;74.53;102397.09;4939314;28;20166;-56
2022/01/16 02:15:37;;;;;;;100.07;32.45;;;;;;;6.88;74.44;102379.75;4960821;28;20124;-57
2022/01/16 02:31:31;;;;;;;95.70;33.95;;;;;;;6.58;74.85;102381.59;4949364;28;20573;-59
2022/01/16 02:36:51;;;;;;;92.72;33.00;;;;;;;6.56;74.55;102395.28;4955120;28;20042;-57
2022/01/16 02:39:24;;;;;;;93.75;33.72;;;;;;;6.55;74.71;102394.38;4954067;28;20511;-56
2022/01/16 02:41:52;;;;;;;90.55;32.97;;;;;;;6.56;74.38;102409.13;4953242;28;20051;-59
2022/01/16 02:44:23;;;;;;;89.50;33.13;;;;;;;6.54;74.49;102392.59;4946833;28;20157;-58
2022/01/16 02:46:50;;;;;;;91.80;33.08;;;;;;;6.45;74.71;102387.84;4947679;28;20858;-58
2022/01/16 02:49:29;;;;;;;88.32;33.13;;;;;;;6.38;74.80;102380.53;4959649;28;20045;-58
2022/01/16 02:51:58;;;;;;;87.53;32.55;;;;;;;6.37;74.52;102380.44;4941486;28;20050;-58
2022/01/16 02:54:24;;;;;;;89.47;33.58;;;;;;;6.33;74.69;102360.38;4943163;28;20042;-58
2022/01/16 02:56:50;;;;;;;91.32;33.28;;;;;;;6.31;74.88;102369.75;4954863;28;20097;-58
2022/01/16 02:59:17;;;;;;;94.07;33.50;;;;;;;6.28;74.91;102369.59;4958925;28;20070;-58
2022/01/16 03:01:43;;;;;;;90.25;34.67;;;;;;;6.24;74.96;102359.84;4931605;28;20773;-58
2022/01/16 03:04:09;;;;;;;96.63;34.55;;;;;;;6.23;74.97;102360.66;4974701;28;20129;-58
2022/01/16 03:06:35;;;;;;;94.15;34.28;;;;;;;6.20;75.30;102348.47;4943129;28;20078;-59
2022/01/16 03:09:01;;;;;;;89.07;34.08;;;;;;;6.20;74.98;102350.16;4947787;28;20105;-58
2022/01/16 03:11:36;;;;;;;86.63;34.47;;;;;;;6.16;74.92;102341.31;4931806;28;20589;-58
2022/01/16 03:14:12;;;;;;;83.97;34.38;;;;;;;6.12;75.17;102344.53;4942875;28;20402;-59
2022/01/16 03:16:41;;;;;;;83.97;32.92;;;;;;;6.14;75.16;102340.34;4936296;28;20346;-58
2022/01/16 03:21:54;;;;;;;86.47;34.33;;;;;;;6.06;75.33;102329.56;4945361;28;20057;-59
2022/01/16 03:24:29;;;;;;;86.95;33.92;;;;;;;6.06;75.32;102334.75;4958158;28;20721;-58
2022/01/16 03:27:08;;;;;;;77.60;32.90;;;;;;;6.07;74.97;102327.88;4957129;28;20090;-60
2022/01/16 03:29:34;;;;;;;78.93;32.90;;;;;;;6.05;74.93;102320.00;4945889;28;20046;-59
2022/01/16 03:32:00;;;;;;;83.97;34.20;;;;;;;6.03;75.09;102331.13;4955965;28;20441;-59
2022/01/16 03:34:26;;;;;;;80.05;33.72;;;;;;;6.03;75.05;102320.75;4961979;28;20513;-59
2022/01/16 03:36:51;;;;;;;81.18;34.15;;;;;;;5.98;74.91;102317.91;4956809;28;20034;-58
2022/01/16 03:39:17;;;;;;;82.30;34.35;;;;;;;6.00;75.29;102318.88;4958365;28;20046;-58
2022/01/16 03:41:43;;;;;;;82.47;33.05;;;;;;;6.02;75.04;102317.28;4947442;28;20785;-58
2022/01/16 03:44:08;;;;;;;82.32;33.30;;;;;;;5.98;75.22;102311.81;4953361;28;20062;-58
2022/01/16 03:46:37;;;;;;;82.60;34.08;;;;;;;6.00;75.32;102298.16;4959724;28;20395;-58
2022/01/16 03:49:24;;;;;;;78.28;33.85;;;;;;;6.03;74.79;102313.88;4958915;28;20105;-58
2022/01/16 03:51:51;;;;;;;81.43;33.30;;;;;;;6.03;75.15;102310.41;4955293;28;20108;-58
2022/01/16 03:54:19;;;;;;;81.10;34.33;;;;;;;6.02;74.97;102312.09;4956232;28;20074;-59
2022/01/16 03:56:45;;;;;;;82.20;34.63;;;;;;;6.01;75.17;102312.91;4970610;28;20039;-58
2022/01/16 03:59:11;;;;;;;83.78;33.90;;;;;;;6.01;74.96;102304.25;4957669;28;20038;-59
2022/01/16 04:01:36;;;;;;;77.93;33.38;;;;;;;6.02;74.73;102314.69;4949404;28;20049;-59
2022/01/16 04:04:02;;;;;;;82.88;33.65;;;;;;;6.04;75.10;102328.59;4951906;28;20089;-58
2022/01/16 04:06:27;;;;;;;78.80;32.95;;;;;;;6.03;75.29;102308.72;4952924;28;20439;-59
2022/01/16 04:08:54;;;;;;;77.22;32.33;;;;;;;6.05;75.14;102313.94;4955418;28;20062;-59
2022/01/16 04:11:25;;;;;;;78.03;33.08;;;;;;;6.01;75.07;102305.13;4959388;28;20100;-59
2022/01/16 04:14:02;;;;;;;80.50;33.88;;;;;;;6.03;75.18;102305.22;4951522;28;20149;-59
2022/01/16 04:16:28;;;;;;;77.55;31.95;;;;;;;6.08;74.89;102311.53;4958240;28;20357;-59
2022/01/16 04:18:53;;;;;;;76.35;32.95;;;;;;;6.09;75.24;102306.44;4960606;28;20050;-60
2022/01/16 04:21:20;;;;;;;75.80;32.55;;;;;;;6.17;75.23;102309.44;4964760;28;20636;-59
2022/01/16 04:23:46;;;;;;;80.88;33.67;;;;;;;6.17;75.23;102309.44;4952185;28;20126;-59
2022/01/16 04:26:11;;;;;;;74.70;32.05;;;;;;;6.23;75.16;102309.75;4960062;28;20534;-59
2022/01/16 04:28:36;;;;;;;72.68;31.20;;;;;;;6.26;75.16;102309.03;4954017;28;20053;-58
2022/01/16 04:31:02;;;;;;;72.65;31.15;;;;;;;6.29;75.26;102304.00;4955501;28;20050;-58
2022/01/16 04:33:28;;;;;;;71.30;31.85;;;;;;;6.33;75.17;102314.66;4953668;28;20628;-59
2022/01/16 04:35:54;;;;;;;68.80;30.90;;;;;;;6.37;75.25;102311.41;4961238;28;20042;-58
2022/01/16 04:38:20;;;;;;;69.70;30.30;;;;;;;6.37;75.17;102307.91;4961466;28;20498;-58
2022/01/16 04:43:47;;;;;;;66.43;29.90;;;;;;;6.43;74.91;102309.13;4952713;28;20058;-59
2022/01/16 04:43:49;;;;;;;68.25;29.67;;;;;;;6.53;74.55;102296.69;4956207;28;20831;-58
2022/01/16 04:46:19;;;;;;;65.13;29.73;;;;;;;6.54;74.93;102296.72;4957325;28;20539;-57
2022/01/16 04:48:44;;;;;;;66.30;30.30;;;;;;;6.53;74.81;102287.16;4959377;28;20050;-58
2022/01/16 04:51:10;;;;;;;62.53;28.42;;;;;;;6.53;74.84;102287.16;4945248;28;20045;-59
2022/01/16 04:53:35;;;;;;;60.03;28.08;;;;;;;6.51;74.46;102291.41;4952929;28;20464;-58
2022/01/16 04:56:01;;;;;;;63.25;28.58;;;;;;;6.53;74.66;102286.31;4974530;28;20625;-59
2022/01/16 04:58:26;;;;;;;60.33;27.77;;;;;;;6.54;74.90;102288.97;4959961;28;20112;-59
2022/01/16 05:00:54;;;;;;;60.40;26.33;;;;;;;6.55;74.44;102297.63;4960592;28;20889;-59
2022/01/16 05:03:19;;;;;;;61.25;27.20;;;;;;;6.58;74.60;102290.03;4960115;28;20034;-59
2022/01/16 05:05:45;;;;;;;58.17;26.20;;;;;;;6.58;74.60;102287.44;4952010;28;20038;-58
2022/01/16 05:08:10;;;;;;;59.10;27.08;;;;;;;6.58;74.68;102292.63;4953619;28;20477;-59
2022/01/16 05:10:36;;;;;;;62.10;26.08;;;;;;;6.63;74.73;102299.81;4958373;28;20509;-58
2022/01/16 05:13:27;;;;;;;50.70;23.95;;;;;;;6.71;74.76;102302.81;4962562;28;20034;-59
2022/01/16 05:18:35;;;;;;;45.33;20.58;;;;;;;6.92;74.81;102296.13;4953416;28;20643;-58
2022/01/16 05:21:01;;;;;;;36.42;16.90;;;;;;;6.98;74.75;102295.53;4953257;28;20549;-58
2022/01/16 05:23:27;;;;;;;22.65;10.60;;;;;;;7.20;74.79;102291.47;4946153;28;20188;-58
2022/01/16 05:25:52;;;;;;;19.92;9.30;;;;;;;7.48;74.48;102283.38;4958006;28;20138;-59
2022/01/16 05:28:18;;;;;;;19.02;8.25;;;;;;;7.66;73.39;102284.25;4950586;28;20158;-59
2022/01/16 05:30:43;;;;;;;16.98;7.55;;;;;;;7.92;73.13;102284.56;4966855;28;20046;-59
2022/01/16 05:33:09;;;;;;;15.70;6.40;;;;;;;8.01;71.56;102291.06;4954896;28;20055;-59
2022/01/16 05:35:35;;;;;;;13.95;6.55;;;;;;;8.17;71.02;102286.59;4949449;28;20074;-58
2022/01/16 05:38:00;;;;;;;14.98;6.18;;;;;;;8.20;69.81;102290.22;4957477;28;20046;-60
2022/01/16 05:40:26;;;;;;;10.30;4.97;;;;;;;8.37;68.30;102285.78;4956869;28;20115;-60
2022/01/16 05:42:51;;;;;;;16.65;5.43;;;;;;;8.40;68.06;102292.03;4961237;28;20597;-60
2022/01/16 05:45:17;;;;;;;12.80;4.60;;;;;;;8.49;66.54;102294.13;4957579;28;20542;-58
2022/01/16 05:47:42;;;;;;;9.75;4.60;;;;;;;8.54;65.25;102298.72;4952980;28;20151;-58
2022/01/16 05:50:08;;;;;;;11.77;4.35;;;;;;;8.68;64.77;102301.94;4951981;28;20614;-61
2022/01/16 05:52:33;;;;;;;9.57;4.20;;;;;;;8.72;63.56;102300.38;4956943;28;20603;-59
2022/01/16 05:54:58;;;;;;;7.72;3.70;;;;;;;8.79;62.97;102298.06;4960488;28;20050;-60
2022/01/16 05:57:24;;;;;;;9.60;4.00;;;;;;;8.88;60.84;102303.69;4958337;28;20133;-57
2022/01/16 05:59:49;;;;;;;10.57;3.75;;;;;;;8.88;59.48;102306.28;4949578;28;21245;-60
2022/01/16 06:02:15;;;;;;;7.32;4.00;;;;;;;9.00;59.85;102299.81;4952341;28;20097;-58
2022/01/16 06:04:41;;;;;;;7.47;4.07;;;;;;;8.93;58.88;102296.06;4951525;28;20402;-58
2022/01/16 06:07:06;;;;;;;8.20;3.70;;;;;;;9.00;58.73;102295.50;4956043;28;20133;-58
2022/01/16 06:09:32;;;;;;;9.13;3.97;;;;;;;8.94;58.64;102300.47;4948587;28;20054;-58
2022/01/16 06:11:57;;;;;;;8.50;4.20;;;;;;;8.93;57.97;102298.66;4959362;28;21154;-58
2022/01/16 06:14:23;;;;;;;9.60;3.97;;;;;;;8.96;57.95;102294.47;4950348;28;20141;-58
2022/01/16 06:16:50;;;;;;;8.00;4.53;;;;;;;8.95;57.71;102297.94;4964015;28;20056;-57
2022/01/16 06:19:15;;;;;;;7.30;4.13;;;;;;;8.92;57.81;102297.78;4957052;28;20045;-59
2022/01/16 06:21:40;;;;;;;9.93;4.15;;;;;;;8.93;58.27;102307.38;4948668;28;20049;-59
2022/01/16 06:24:06;;;;;;;7.57;4.55;;;;;;;8.98;57.50;102306.66;4946707;28;20050;-57
2022/01/16 06:26:31;;;;;;;7.57;4.32;;;;;;;9.04;57.82;102306.91;4958426;28;20043;-57
2022/01/16 06:28:57;;;;;;;12.45;4.95;;;;;;;9.04;58.18;102309.53;4956862;28;20046;-59
2022/01/16 06:31:24;;;;;;;8.43;4.47;;;;;;;9.03;57.52;102313.84;4959508;28;20046;-57
2022/01/16 06:33:50;;;;;;;8.32;4.22;;;;;;;9.03;57.61;102316.44;4958689;28;20046;-59
2022/01/16 06:36:15;;;;;;;8.98;5.05;;;;;;;9.01;57.87;102310.31;4950683;28;20038;-59
2022/01/16 06:38:41;;;;;;;13.77;5.20;;;;;;;9.04;57.55;102314.72;4939207;28;20043;-59
2022/01/16 06:41:06;;;;;;;8.70;4.85;;;;;;;9.05;58.25;102319.13;4949915;28;20046;-58
2022/01/16 06:43:33;;;;;;;11.07;5.50;;;;;;;9.03;58.47;102326.84;4944622;28;20445;-59
2022/01/16 06:45:59;;;;;;;12.65;5.90;;;;;;;9.01;59.13;102331.13;4952075;28;20692;-59
2022/01/16 06:48:25;;;;;;;11.52;5.90;;;;;;;9.03;58.95;102338.97;4954450;28;20049;-58
2022/01/16 06:50:50;;;;;;;8.60;5.47;;;;;;;9.03;58.94;102341.56;4956688;28;20401;-58
2022/01/16 06:53:15;;;;;;;12.68;6.22;;;;;;;9.07;58.43;102339.19;4955445;28;20868;-58
2022/01/16 06:55:41;;;;;;;12.23;6.10;;;;;;;9.07;58.73;102346.97;4970773;28;20348;-57
2022/01/16 06:58:06;;;;;;;12.18;6.22;;;;;;;9.08;58.82;102353.97;4955546;28;20050;-59
2022/01/16 07:00:32;;;;;;;12.00;5.78;;;;;;;9.06;58.65;102354.72;4953708;28;20574;-59
2022/01/16 07:02:57;;;;;;;11.70;5.68;;;;;;;9.15;58.81;102357.72;4952198;28;20435;-58
2022/01/16 07:05:22;;;;;;;11.90;5.80;;;;;;;9.18;58.38;102352.63;4952768;28;20042;-57
2022/01/16 07:07:48;;;;;;;12.27;5.70;;;;;;;9.22;58.58;102358.03;4954226;28;20085;-58
2022/01/16 07:10:13;;;;;;;9.63;5.97;;;;;;;9.22;58.61;102363.22;4954194;28;20604;-58
2022/01/16 07:12:39;;;;;;;11.90;6.05;;;;;;;9.16;58.30;102364.69;4955024;28;20042;-58
2022/01/16 07:15:05;;;;;;;13.75;5.88;;;;;;;9.22;58.33;102370.16;4949005;28;20141;-58
2022/01/16 07:17:30;;;;;;;11.77;5.72;;;;;;;9.17;58.64;102379.47;4951639;28;20049;-60
2022/01/16 07:19:55;;;;;;;14.45;6.38;;;;;;;9.17;59.72;102389.88;4961702;28;20520;-59
2022/01/16 07:22:21;;;;;;;13.02;6.32;;;;;;;9.18;59.56;102389.97;4959469;28;20383;-57
2022/01/16 07:24:48;;;;;;;12.23;6.32;;;;;;;9.23;59.50;102392.75;4952239;28;20039;-58
2022/01/16 07:27:13;;;;;;;11.63;6.47;;;;;;;9.19;59.38;102399.53;4962663;28;20048;-58
2022/01/16 07:29:39;;;;;;;14.55;6.53;;;;;;;9.26;59.85;102398.09;4947756;28;20478;-59
2022/01/16 07:32:06;;;;;;;13.10;6.50;;;;;;;9.30;60.01;102402.59;4953899;28;20047;-59
2022/01/16 07:34:34;;;;;;;16.17;7.15;;;;;;;9.32;60.56;102403.56;4959925;28;20039;-60
2022/01/16 07:37:00;;;;;;;14.35;6.57;;;;;;;9.35;60.95;102404.56;4957915;28;20034;-58
2022/01/16 07:39:25;;;;;;;11.10;6.28;;;;;;;9.36;61.17;102418.47;4955454;28;20042;-59
2022/01/16 07:41:50;;;;;;;15.35;6.93;;;;;;;9.32;62.13;102414.88;4957974;28;20482;-58
2022/01/16 07:44:16;;;;;;;13.07;6.28;;;;;;;9.40;62.18;102414.28;4964668;28;20454;-58
2022/01/16 07:46:41;;;;;;;14.90;6.75;;;;;;;9.39;62.68;102397.81;4960790;28;20520;-59
2022/01/16 07:49:07;;;;;;;18.45;7.35;;;;;;;9.38;63.45;102416.84;4967166;28;20133;-58
2022/01/16 07:51:32;;;;;;;13.93;7.13;;;;;;;9.38;63.35;102421.16;4947216;28;20047;-58
2022/01/16 07:53:58;;;;;;;16.25;7.95;;;;;;;9.36;63.71;102424.56;4976260;28;20058;-56
2022/01/16 07:56:24;;;;;;;17.02;7.65;;;;;;;9.42;64.42;102433.47;4959028;28;20460;-57
2022/01/16 07:58:49;;;;;;;16.60;8.35;;;;;;;9.40;64.38;102440.31;4959618;28;20081;-59
2022/01/16 08:01:15;;;;;;;19.58;7.97;;;;;;;9.43;64.32;102430.03;4951363;28;20046;-58
2022/01/16 08:03:40;;;;;;;16.23;8.43;;;;;;;9.45;64.63;102429.31;4952321;28;20039;-57
2022/01/16 08:06:06;;;;;;;17.90;7.85;;;;;;;9.40;65.34;102433.38;4959908;28;20583;-59
2022/01/16 08:08:31;;;;;;;20.17;8.80;;;;;;;9.47;65.02;102438.03;4958332;28;20046;-59
2022/01/16 08:10:57;;;;;;;17.92;8.40;;;;;;;9.49;65.39;102439.00;4961947;28;20050;-59
2022/01/16 08:13:22;;;;;;;20.95;8.88;;;;;;;9.47;65.23;102432.84;4957968;28;20049;-58
2022/01/16 08:15:48;;;;;;;18.40;7.93;;;;;;;9.43;66.04;102437.84;4955756;28;20034;-58
2022/01/16 08:18:13;;;;;;;19.50;8.48;;;;;;;9.47;65.60;102426.75;4950609;28;20061;-58
2022/01/16 08:20:38;;;;;;;21.98;8.48;;;;;;;9.46;65.90;102425.84;4956682;28;20050;-59
2022/01/16 08:23:04;;;;;;;20.77;8.93;;;;;;;9.53;65.73;102412.25;4959075;28;20480;-58
2022/01/16 08:25:29;;;;;;;23.75;8.30;;;;;;;9.52;66.39;102418.28;4950996;28;20378;-59
2022/01/16 08:27:55;;;;;;;19.48;8.38;;;;;;;9.63;65.99;102414.44;4955921;28;20105;-58
2022/01/16 08:30:20;;;;;;;15.02;7.85;;;;;;;9.61;66.00;102410.88;4958548;28;20053;-58
2022/01/16 08:32:46;;;;;;;20.42;8.68;;;;;;;9.61;65.84;102412.59;4960737;28;20107;-59
2022/01/16 08:35:15;;;;;;;18.17;8.70;;;;;;;9.60;66.04;102414.31;4953414;28;20043;-58
2022/01/16 08:37:41;;;;;;;19.80;8.43;;;;;;;9.57;66.23;102406.38;4949225;28;20043;-58
2022/01/16 08:40:08;;;;;;;16.67;8.65;;;;;;;9.68;65.83;102407.72;4958057;28;20078;-59
2022/01/16 08:42:35;;;;;;;16.70;8.30;;;;;;;9.59;66.12;102415.13;4956120;28;20053;-59
2022/01/16 08:45:02;;;;;;;18.40;8.10;;;;;;;9.66;66.20;102424.97;4960849;28;20038;-59
2022/01/16 08:47:28;;;;;;;16.80;8.25;;;;;;;9.70;65.63;102428.59;4951472;28;20053;-61
2022/01/16 08:49:53;;;;;;;19.67;8.20;;;;;;;9.67;66.05;102421.56;4951788;28;20046;-60
2022/01/16 08:52:21;;;;;;;21.02;8.65;;;;;;;9.65;66.07;102430.13;4959698;28;20893;-58
2022/01/16 08:54:47;;;;;;;20.23;10.70;;;;;;;9.65;66.20;102438.81;4952641;28;20087;-59
2022/01/16 08:57:15;;;;;;;29.98;12.95;;;;;;;9.57;66.08;102450.66;4961450;28;20113;-58
2022/01/16 08:59:40;;;;;;;30.80;13.63;;;;;;;9.54;66.57;102453.09;4944364;28;20077;-58
2022/01/16 09:02:05;;;;;;;32.25;15.15;;;;;;;9.47;66.66;102453.66;4959653;28;20042;-58
2022/01/16 09:04:31;;;;;;;36.65;16.08;;;;;;;9.39;67.28;102460.28;4950536;28;20220;-59
2022/01/16 09:06:57;;;;;;;42.63;18.55;;;;;;;9.30;67.26;102462.47;4959328;28;20439;-56
2022/01/16 09:09:23;;;;;;;40.20;17.70;;;;;;;9.39;67.47;102459.38;4959928;28;20052;-58
2022/01/16 09:11:48;;;;;;;45.58;19.40;;;;;;;9.29;67.99;102464.16;4956157;28;20410;-58
2022/01/16 09:14:14;;;;;;;47.47;20.13;;;;;;;9.32;67.80;102460.81;4960772;28;20080;-59
2022/01/16 09:16:40;;;;;;;53.72;20.60;;;;;;;9.31;68.06;102461.63;4959124;28;20429;-58
2022/01/16 09:19:05;;;;;;;47.78;20.42;;;;;;;9.31;67.93;102472.94;4958963;28;20496;-58
2022/01/16 09:21:30;;;;;;;50.72;21.42;;;;;;;9.25;68.20;102469.19;4950157;28;20117;-58
2022/01/16 09:23:56;;;;;;;51.17;20.77;;;;;;;9.25;68.56;102477.00;4957508;28;20030;-58
2022/01/16 09:26:23;;;;;;;49.90;21.45;;;;;;;9.29;68.64;102477.19;4961237;28;20509;-57
2022/01/16 09:28:49;;;;;;;52.33;21.45;;;;;;;9.22;68.77;102480.34;4955515;28;20042;-57
2022/01/16 09:31:14;;;;;;;50.90;21.60;;;;;;;9.25;68.30;102485.69;4950374;28;20417;-60
2022/01/16 09:33:40;;;;;;;56.63;22.42;;;;;;;9.26;68.61;102492.69;4956786;28;20129;-58
2022/01/16 09:36:07;;;;;;;50.38;21.20;;;;;;;9.19;68.81;102489.72;4949511;28;20510;-58
2022/01/16 09:38:32;;;;;;;54.65;21.73;;;;;;;9.23;68.85;102497.72;4959243;28;20047;-58
2022/01/16 09:40:58;;;;;;;53.38;22.02;;;;;;;9.24;69.09;102499.50;4958768;28;21143;-58
2022/01/16 09:43:24;;;;;;;52.75;21.85;;;;;;;9.21;68.80;102501.09;4959685;28;20332;-58
2022/01/16 09:45:52;;;;;;;51.70;21.83;;;;;;;9.24;68.81;102501.22;4951332;28;20554;-59
2022/01/16 09:48:18;;;;;;;54.05;22.20;;;;;;;9.19;69.03;102498.44;4958478;28;20050;-57
2022/01/16 09:50:43;;;;;;;54.35;22.00;;;;;;;9.17;69.05;102496.56;4949107;28;20042;-58
2022/01/16 09:53:08;;;;;;;51.55;22.00;;;;;;;9.16;69.16;102505.19;4959400;28;20101;-58
2022/01/16 09:55:34;;;;;;;58.83;23.70;;;;;;;9.10;69.82;102515.31;4951020;28;20125;-59
2022/01/16 09:58:00;;;;;;;61.83;24.73;;;;;;;9.04;69.42;102515.03;4951559;28;20498;-57
2022/01/16 10:00:26;;;;;;;58.47;24.55;;;;;;;9.01;69.78;102522.72;4962145;28;20069;-58
2022/01/16 10:02:53;;;;;;;64.80;25.40;;;;;;;8.96;69.46;102515.56;4958039;28;20034;-58
2022/01/16 10:05:32;;;;;;;67.45;25.52;;;;;;;8.98;69.49;102527.75;4955647;28;20417;-59
2022/01/16 10:07:59;;;;;;;66.00;25.70;;;;;;;8.91;69.86;102519.69;4960048;28;20042;-59
2022/01/16 10:10:27;;;;;;;66.07;25.55;;;;;;;8.89;70.15;102523.06;4957495;28;20188;-59
2022/01/16 10:12:54;;;;;;;67.45;26.27;;;;;;;8.93;69.50;102531.06;4963224;28;20138;-58
2022/01/16 10:15:27;;;;;;;68.88;26.20;;;;;;;8.91;69.69;102527.47;4954722;28;20106;-59
2022/01/16 10:17:54;;;;;;;70.50;26.58;;;;;;;8.96;69.90;102541.59;4956090;28;20121;-59
2022/01/16 10:20:20;;;;;;;64.18;25.33;;;;;;;8.98;69.98;102551.19;4958921;28;20545;-58
2022/01/16 10:22:54;;;;;;;65.68;25.40;;;;;;;9.02;69.58;102546.22;4947691;28;20365;-58
2022/01/16 10:25:35;;;;;;;69.90;26.25;;;;;;;8.97;69.56;102537.28;4958954;28;20085;-59
2022/01/16 10:28:03;;;;;;;71.07;26.05;;;;;;;9.02;69.74;102542.72;4959060;28;20532;-58
2022/01/16 10:30:43;;;;;;;67.35;26.55;;;;;;;9.03;69.76;102554.88;4944041;28;20045;-58
2022/01/16 10:33:13;;;;;;;68.38;26.23;;;;;;;8.93;70.11;102551.88;4960573;28;20053;-59
2022/01/16 10:35:40;;;;;;;68.10;25.38;;;;;;;9.01;69.93;102547.03;4935120;28;20488;-59
2022/01/16 10:38:08;;;;;;;67.90;26.17;;;;;;;9.10;69.69;102538.72;4951618;28;20041;-58
2022/01/16 10:40:37;;;;;;;78.53;27.15;;;;;;;9.11;69.66;102544.00;4950471;28;20139;-59
2022/01/16 10:43:06;;;;;;;68.32;26.30;;;;;;;9.15;69.78;102547.66;4955269;28;20511;-58
2022/01/16 10:45:32;;;;;;;72.65;26.10;;;;;;;9.09;69.93;102543.03;4948824;28;20050;-59
2022/01/16 10:48:02;;;;;;;73.00;26.88;;;;;;;9.22;69.87;102539.28;4959088;28;21117;-58
2022/01/16 10:50:35;;;;;;;69.55;26.52;;;;;;;9.22;69.84;102526.28;4953871;28;20050;-58
2022/01/16 10:53:03;;;;;;;73.20;26.98;;;;;;;9.27;69.70;102533.47;4960034;28;20533;-59
2022/01/16 10:55:37;;;;;;;71.43;26.95;;;;;;;9.34;69.75;102537.25;4950558;28;20043;-61
2022/01/16 10:58:05;;;;;;;71.35;26.50;;;;;;;9.38;69.84;102536.56;4955735;28;20134;-57
2022/01/16 11:00:30;;;;;;;71.03;26.80;;;;;;;9.47;69.65;102541.28;4955967;28;20039;-58
2022/01/16 11:02:59;;;;;;;70.30;26.83;;;;;;;9.49;69.81;102535.34;4958721;28;20133;-59
2022/01/16 11:05:27;;;;;;;64.57;26.25;;;;;;;9.56;69.48;102526.09;4952875;28;20039;-59
2022/01/16 11:08:00;;;;;;;71.13;27.42;;;;;;;9.65;69.54;102523.84;4957606;28;20071;-58
2022/01/16 11:10:29;;;;;;;71.18;27.25;;;;;;;9.65;69.37;102523.84;4955869;28;20042;-60
2022/01/16 11:12:57;;;;;;;77.00;26.60;;;;;;;9.73;69.17;102543.31;4958444;28;20069;-60
2022/01/16 11:15:23;;;;;;;67.03;26.58;;;;;;;9.83;69.02;102540.28;4955886;28;20572;-59
2022/01/16 11:17:49;;;;;;;72.70;27.00;;;;;;;9.93;68.68;102541.56;4952551;28;20489;-58
2022/01/16 11:20:15;;;;;;;69.20;26.35;;;;;;;10.01;68.26;102535.84;4954001;28;20178;-58
2022/01/16 11:23:01;;;;;;;70.63;27.05;;;;;;;9.98;68.19;102534.84;4952332;28;20046;-58
2022/01/16 11:25:33;;;;;;;67.68;25.35;;;;;;;10.15;68.26;102552.06;4953818;28;20073;-58
2022/01/16 11:28:01;;;;;;;58.53;25.17;;;;;;;10.37;67.57;102549.53;4950555;28;20081;-58
2022/01/16 11:30:31;;;;;;;62.45;24.80;;;;;;;10.48;67.47;102553.50;4950263;28;20133;-58
2022/01/16 11:32:57;;;;;;;64.97;24.85;;;;;;;10.66;66.92;102542.00;4954151;28;20054;-58
2022/01/16 11:35:28;;;;;;;62.20;25.05;;;;;;;10.77;66.40;102536.38;4954088;28;20399;-60
2022/01/16 11:37:54;;;;;;;58.03;23.90;;;;;;;10.88;66.11;102535.06;4955923;28;20054;-58
2022/01/16 11:40:42;;;;;;;51.13;21.58;;;;;;;10.81;65.35;102519.13;4951205;28;20045;-58
2022/01/16 11:43:23;;;;;;;53.90;21.38;;;;;;;10.82;65.46;102516.56;4955594;28;20114;-58
2022/01/16 11:45:50;;;;;;;49.00;20.42;;;;;;;10.76;65.28;102523.28;4949610;28;20077;-58
2022/01/16 11:48:38;;;;;;;48.63;19.90;;;;;;;10.82;65.02;102524.41;4952394;28;20065;-57
2022/01/16 11:51:06;;;;;;;44.50;19.48;;;;;;;10.84;65.07;102520.13;4954805;28;20053;-58
2022/01/16 11:53:56;;;;;;;41.17;17.83;;;;;;;10.78;64.60;102525.13;4949016;28;20102;-57
2022/01/16 11:56:37;;;;;;;41.00;16.65;;;;;;;10.85;64.49;102534.97;4957783;28;20390;-58